NCAR-RAP Real-Time Weather Data

Output produced by METARs form (10 April 2020  05:31 UTC)
found at http://weather.rap.ucar.edu/surface/
 
KPIA 100454Z 30006KT 10SM CLR 02/M07 A3005 RMK AO2 SLP179 T00171072
KPIA 100354Z 31009KT 10SM CLR 02/M07 A3003 RMK AO2 SLP173 T00221072
KPIA 100254Z 31011G19KT 280V340 10SM CLR 03/M08 A3002 RMK AO2 SLP170 T00281078 51035
KPIA 100154Z 30012G23KT 10SM FEW085 03/M08 A2999 RMK AO2 PK WND 31030/0132 SLP160 T00331078
KPIA 100054Z 32014G29KT 10SM SCT060 BKN070 OVC090 04/M09 A2996 RMK AO2 PK WND 30037/0034 SLP150 T00441089
KPIA 092354Z 32019G35KT 10SM BKN080 06/M09 A2992 RMK AO2 PK WND 32038/2323 SLP134 60000 T00561089 10106 20056 51024
KPIA 092254Z 31019G31KT 10SM SCT060 SCT075 BKN100 07/M06 A2990 RMK AO2 PK WND 31038/2232 RAE00 SLP128 P0000 T00721056
KPIA 092154Z 31016G40KT 10SM -RA FEW036 BKN049 OVC070 07/M03 A2987 RMK AO2 PK WND 35040/2146 RAB02E16B49 SLP120 P0000 T00671028
KPIA 092054Z 30014G25KT 10SM SCT060 BKN075 BKN100 09/M03 A2984 RMK AO2 PK WND 28032/2018 SLP109 T00891028 58002
KPIA 091954Z 32011G25KT 10SM SCT050 BKN075 BKN095 09/M05 A2985 RMK AO2 PK WND 28037/1936 SLP111 T00941050
KPIA 091854Z 31015G31KT 10SM OVC075 09/M06 A2985 RMK AO2 PK WND 31032/1758 SLP108 T00941056
KPIA 091754Z 30015G28KT 10SM BKN065 BKN080 OVC090 09/M05 A2985 RMK AO2 PK WND 28038/1655 SLP110 T00941050 10100 20039 58015
KPIA 091654Z 28019G29KT 10SM BKN065 OVC080 10/M05 A2987 RMK AO2 PK WND 29030/1644 SLP116 T01001050
KPIA 091554Z 30015G24KT 10SM FEW060 09/M04 A2989 RMK AO2 SLP125 T00891044
KPIA 091454Z 32013G20KT 10SM CLR 08/M05 A2990 RMK AO2 SLP125 T00781050 58009
KPIA 091354Z 32009G19KT 10SM CLR 07/M05 A2992 RMK AO2 SLP132 T00671050
KPIA 091254Z 30010KT 10SM CLR 05/M05 A2992 RMK AO2 SLP136 T00501050
KPIA 091154Z 31007G16KT 10SM CLR 04/M05 A2992 RMK AO2 SLP135 70006 T00391050 10089 20039 52009
KPIA 091054Z 31008KT 10SM CLR 04/M05 A2992 RMK AO2 SLP132 T00441050
KPIA 090954Z 31008G17KT 10SM CLR 06/M04 A2990 RMK AO2 SLP127 T00561039
KPIA 090854Z 31008KT 10SM CLR 06/M03 A2990 RMK AO2 SLP123 T00611033 51015
KPIA 090754Z 32008G18KT 10SM CLR 07/M04 A2989 RMK AO2 SLP118 T00671039
KPIA 090654Z 32010G20KT 10SM CLR 08/M03 A2988 RMK AO2 SLP114 T00781033